Time;durP1;ratioP1;P1;durP2;ratioP2;P2;SDS_P1;SDS_P2;PMS_P1;PMS_P2;Temp;Humidity;BMP_temperature;BMP_pressure;BME280_temperature;BME280_humidity;BME280_pressure;Samples;Min_cycle;Max_cycle;Signal;HPM_P1;HPM_P2
2021/06/03 00:00:22;;;;;;;20.33;14.88;;;17.50;94.20;;;;;;5032717;28;20025;-80
2021/06/03 00:02:49;;;;;;;27.42;15.23;;;17.50;94.20;;;;;;5031657;28;20025;-80
2021/06/03 00:05:17;;;;;;;21.55;16.00;;;17.50;94.20;;;;;;5031703;28;20029;-81
2021/06/03 00:07:42;;;;;;;23.98;16.40;;;17.50;94.20;;;;;;5031389;28;20028;-80
2021/06/03 00:10:09;;;;;;;22.75;16.08;;;17.50;94.20;;;;;;4998391;28;20555;-79
2021/06/03 00:12:35;;;;;;;24.33;16.55;;;17.50;94.20;;;;;;5030838;28;20475;-80
2021/06/03 00:15:02;;;;;;;19.33;15.65;;;17.50;94.20;;;;;;5014640;28;20032;-80
2021/06/03 00:17:28;;;;;;;26.70;16.30;;;17.50;94.20;;;;;;5032501;28;20025;-80
2021/06/03 00:19:53;;;;;;;28.23;16.52;;;17.50;94.30;;;;;;5015524;28;20040;-80
2021/06/03 00:22:19;;;;;;;19.23;15.30;;;17.60;94.40;;;;;;4998660;28;20032;-81
2021/06/03 00:24:46;;;;;;;17.92;13.48;;;17.60;94.50;;;;;;4998830;28;20025;-81
2021/06/03 00:27:12;;;;;;;19.05;14.88;;;17.60;94.60;;;;;;5014780;28;20032;-81
2021/06/03 00:29:38;;;;;;;22.17;14.57;;;17.60;94.60;;;;;;5014509;28;20033;-81
2021/06/03 00:32:06;;;;;;;23.50;15.50;;;17.70;94.50;;;;;;5030954;28;20090;-81
2021/06/03 00:34:32;;;;;;;23.27;15.35;;;17.70;94.50;;;;;;5030717;28;20030;-80
2021/06/03 00:36:58;;;;;;;21.50;15.73;;;17.70;94.40;;;;;;5031195;28;20042;-81
2021/06/03 00:39:24;;;;;;;21.48;15.75;;;17.70;94.40;;;;;;5030407;28;20117;-81
2021/06/03 00:41:50;;;;;;;20.70;14.55;;;17.80;94.50;;;;;;5014189;28;20029;-81
2021/06/03 00:44:16;;;;;;;27.10;16.23;;;17.80;94.50;;;;;;5014869;28;20030;-81
2021/06/03 00:46:41;;;;;;;17.67;13.90;;;17.80;94.40;;;;;;5030381;28;20025;-81
2021/06/03 00:49:07;;;;;;;27.00;15.68;;;17.80;94.40;;;;;;5030665;28;20471;-82
2021/06/03 00:51:33;;;;;;;23.70;13.40;;;17.80;94.50;;;;;;5013513;28;20029;-81
2021/06/03 00:53:58;;;;;;;16.45;12.75;;;17.90;94.50;;;;;;5048108;28;20068;-81
2021/06/03 00:56:24;;;;;;;19.20;14.20;;;17.90;94.40;;;;;;5030246;28;20415;-81
2021/06/03 00:58:50;;;;;;;21.83;14.23;;;18.00;94.30;;;;;;5030001;28;20372;-80
2021/06/03 01:01:16;;;;;;;22.75;13.38;;;18.00;94.20;;;;;;5030074;28;20029;-81
2021/06/03 01:03:42;;;;;;;25.58;14.32;;;18.10;94.10;;;;;;5030245;28;20025;-80
2021/06/03 01:06:09;;;;;;;21.35;13.80;;;18.10;94.10;;;;;;5030514;28;20037;-80
2021/06/03 01:08:40;;;;;;;26.48;15.30;;;18.20;94.00;;;;;;5030100;28;20025;-81
2021/06/03 01:11:12;;;;;;;20.58;14.82;;;18.20;93.90;;;;;;5030266;28;20021;-80
2021/06/03 01:14:07;;;;;;;26.55;16.23;;;18.20;93.90;;;;;;5030432;28;20020;-81
2021/06/03 01:16:34;;;;;;;23.17;16.02;;;18.10;94.00;;;;;;5030201;28;20112;-81
2021/06/03 01:19:07;;;;;;;18.60;14.82;;;18.10;93.90;;;;;;5029951;28;20034;-81
2021/06/03 01:21:50;;;;;;;22.10;16.63;;;18.10;94.00;;;;;;5030134;28;20028;-80
2021/06/03 01:24:22;;;;;;;22.83;15.93;;;18.10;94.10;;;;;;5030192;28;20118;-80
2021/06/03 01:26:49;;;;;;;27.50;16.70;;;18.00;94.10;;;;;;5047950;28;20367;-81
2021/06/03 01:29:18;;;;;;;22.80;15.77;;;18.00;94.10;;;;;;5013543;28;20128;-81
2021/06/03 01:31:48;;;;;;;29.02;17.27;;;18.00;94.20;;;;;;5013628;28;20048;-81
2021/06/03 01:34:14;;;;;;;22.90;14.70;;;18.00;94.30;;;;;;5014352;28;20394;-81
2021/06/03 01:36:41;;;;;;;22.15;15.15;;;17.90;94.30;;;;;;5029789;28;20032;-81
2021/06/03 01:39:09;;;;;;;22.27;15.43;;;17.90;94.30;;;;;;5013515;28;20036;-81
2021/06/03 01:41:34;;;;;;;21.05;15.77;;;17.80;94.30;;;;;;5029695;28;20039;-81
2021/06/03 01:44:01;;;;;;;25.17;15.43;;;17.80;94.30;;;;;;5013606;28;20017;-81
2021/06/03 01:46:28;;;;;;;24.15;14.30;;;17.80;94.40;;;;;;5013322;28;20399;-82
2021/06/03 01:48:56;;;;;;;21.60;15.55;;;17.80;94.50;;;;;;5013415;28;20042;-82
2021/06/03 01:51:23;;;;;;;20.30;14.70;;;17.80;94.60;;;;;;5029497;28;20033;-81
2021/06/03 01:53:49;;;;;;;22.40;14.48;;;17.90;94.70;;;;;;5029932;28;20029;-80
2021/06/03 01:56:17;;;;;;;23.75;14.68;;;18.00;94.60;;;;;;5013356;28;20122;-80
2021/06/03 01:58:44;;;;;;;23.55;15.48;;;18.00;94.60;;;;;;5047550;28;20029;-81
2021/06/03 02:01:10;;;;;;;23.73;15.10;;;18.10;94.50;;;;;;5029966;28;20126;-81
2021/06/03 02:03:36;;;;;;;20.27;14.57;;;18.20;94.50;;;;;;5033839;28;20108;-81
2021/06/03 02:06:04;;;;;;;20.73;14.63;;;18.20;94.40;;;;;;5000861;28;20364;-82
2021/06/03 02:08:31;;;;;;;22.10;15.35;;;18.20;94.40;;;;;;5000927;28;20037;-81
2021/06/03 02:10:57;;;;;;;23.00;15.90;;;18.20;94.30;;;;;;5033395;28;20033;-82
2021/06/03 02:13:36;;;;;;;22.08;16.52;;;18.20;94.20;;;;;;5016746;28;20384;-81
2021/06/03 02:16:03;;;;;;;22.35;16.52;;;18.20;94.20;;;;;;5033147;28;20103;-81
2021/06/03 02:18:36;;;;;;;22.42;15.52;;;18.20;94.20;;;;;;5033240;28;20021;-81
2021/06/03 02:21:03;;;;;;;22.83;17.10;;;18.20;94.20;;;;;;5033354;28;20051;-81
2021/06/03 02:23:30;;;;;;;22.23;14.02;;;18.20;94.20;;;;;;5033018;28;20025;-80
2021/06/03 02:26:01;;;;;;;20.17;15.15;;;18.10;94.50;;;;;;5016765;28;20029;-81
2021/06/03 02:28:29;;;;;;;21.17;15.10;;;18.10;94.40;;;;;;5016561;28;20403;-81
2021/06/03 02:30:56;;;;;;;21.60;14.70;;;18.10;94.40;;;;;;5050657;28;20099;-80
2021/06/03 02:33:22;;;;;;;25.73;15.77;;;18.10;94.40;;;;;;5016603;28;20037;-80
2021/06/03 02:35:49;;;;;;;21.65;16.55;;;18.10;94.40;;;;;;5016637;28;20429;-81
2021/06/03 02:38:16;;;;;;;23.48;15.43;;;18.20;94.30;;;;;;5033201;28;20100;-81
2021/06/03 02:40:42;;;;;;;24.77;16.63;;;18.20;94.30;;;;;;5000446;28;20039;-81
2021/06/03 02:43:08;;;;;;;20.67;15.40;;;18.20;94.20;;;;;;5016192;28;20029;-81
2021/06/03 02:45:35;;;;;;;26.48;16.25;;;18.20;94.10;;;;;;5016550;28;20494;-81
2021/06/03 02:48:03;;;;;;;22.00;16.52;;;18.10;94.20;;;;;;5032567;28;20356;-81
2021/06/03 02:50:29;;;;;;;25.45;17.60;;;18.10;94.20;;;;;;5016613;28;20029;-81
2021/06/03 02:52:56;;;;;;;21.02;17.10;;;18.00;94.10;;;;;;5032283;28;20035;-81
2021/06/03 02:55:23;;;;;;;25.55;17.58;;;17.90;94.20;;;;;;5032512;28;20029;-81
2021/06/03 02:57:49;;;;;;;25.38;16.88;;;17.80;94.30;;;;;;5016295;28;20073;-81
2021/06/03 03:00:22;;;;;;;24.30;15.80;;;17.80;94.30;;;;;;5016054;28;20064;-79
2021/06/03 03:02:48;;;;;;;23.05;16.85;;;17.80;94.50;;;;;;5032337;28;20475;-81
2021/06/03 03:05:14;;;;;;;25.10;15.25;;;17.70;94.50;;;;;;5015852;28;20494;-80
2021/06/03 03:07:40;;;;;;;21.92;15.60;;;17.70;94.60;;;;;;5015821;28;20124;-80
2021/06/03 03:10:13;;;;;;;22.10;16.17;;;17.60;94.70;;;;;;4999506;28;20029;-81
2021/06/03 03:12:39;;;;;;;20.40;16.58;;;17.60;94.80;;;;;;5031996;28;20025;-80
2021/06/03 03:15:08;;;;;;;21.02;14.93;;;17.60;94.80;;;;;;5049437;28;20016;-80
2021/06/03 03:17:33;;;;;;;24.83;16.85;;;17.70;94.80;;;;;;5015735;28;20037;-81
2021/06/03 03:19:59;;;;;;;22.15;16.20;;;17.70;94.80;;;;;;4999121;28;20037;-81
2021/06/03 03:22:25;;;;;;;21.42;15.77;;;17.70;94.80;;;;;;5031987;28;20070;-81
2021/06/03 03:24:51;;;;;;;23.38;16.33;;;17.70;94.70;;;;;;5049933;28;20127;-81
2021/06/03 03:27:17;;;;;;;26.27;15.43;;;17.70;94.70;;;;;;5015310;28;20513;-81
2021/06/03 03:29:43;;;;;;;24.15;15.48;;;17.70;94.70;;;;;;5032057;28;20541;-81
2021/06/03 03:32:08;;;;;;;24.60;15.60;;;17.70;94.70;;;;;;4999118;28;20029;-81
2021/06/03 03:34:34;;;;;;;18.77;14.93;;;17.70;94.70;;;;;;5031860;28;20047;-80
2021/06/03 03:37:00;;;;;;;23.42;15.73;;;17.70;94.80;;;;;;5015301;28;20131;-80
2021/06/03 03:39:26;;;;;;;24.10;17.48;;;17.70;94.80;;;;;;5031827;28;20025;-81
2021/06/03 03:41:53;;;;;;;21.20;17.17;;;17.70;94.80;;;;;;5031594;28;20335;-81
2021/06/03 03:44:18;;;;;;;25.95;18.70;;;17.60;94.90;;;;;;5031419;28;20044;-81
2021/06/03 03:46:44;;;;;;;26.52;19.38;;;17.60;94.90;;;;;;4998884;28;20541;-81
2021/06/03 03:49:10;;;;;;;22.75;16.23;;;17.50;95.00;;;;;;4998860;28;20064;-80
2021/06/03 03:51:35;;;;;;;20.52;16.75;;;17.50;95.10;;;;;;5031611;28;20043;-80
2021/06/03 03:54:02;;;;;;;24.42;17.80;;;17.50;95.10;;;;;;5014789;28;20119;-80
2021/06/03 03:56:27;;;;;;;17.92;14.98;;;17.50;95.10;;;;;;5031267;28;20045;-81
2021/06/03 03:58:53;;;;;;;18.55;14.20;;;17.50;95.10;;;;;;4998404;28;20052;-81
2021/06/03 04:01:19;;;;;;;21.38;16.52;;;17.40;95.10;;;;;;5031030;28;20033;-80
2021/06/03 04:03:45;;;;;;;20.08;16.33;;;17.40;95.20;;;;;;5014909;28;20119;-81
2021/06/03 04:06:11;;;;;;;21.58;16.30;;;17.40;95.30;;;;;;4998446;28;20538;-80
2021/06/03 04:08:37;;;;;;;17.98;13.60;;;17.50;95.40;;;;;;5031083;28;20021;-80
2021/06/03 04:11:03;;;;;;;17.00;13.35;;;17.50;95.30;;;;;;5014762;28;20021;-80
2021/06/03 04:13:29;;;;;;;14.77;12.15;;;17.50;95.30;;;;;;5030903;28;20028;-81
2021/06/03 04:15:55;;;;;;;19.92;13.88;;;17.60;95.30;;;;;;5014572;28;20025;-80
2021/06/03 04:18:21;;;;;;;14.90;10.60;;;17.60;95.20;;;;;;5031162;28;20052;-81
2021/06/03 04:20:48;;;;;;;13.30;9.38;;;17.60;95.20;;;;;;4998494;28;20054;-81
2021/06/03 04:23:13;;;;;;;13.20;8.18;;;17.70;95.20;;;;;;5015190;28;20025;-80
2021/06/03 04:25:39;;;;;;;10.23;6.85;;;17.70;95.00;;;;;;4997315;28;20123;-80
2021/06/03 04:28:05;;;;;;;8.43;6.10;;;17.80;95.00;;;;;;5015756;28;20032;-81
2021/06/03 04:30:32;;;;;;;7.32;5.40;;;17.80;94.80;;;;;;5014874;28;20033;-80
2021/06/03 04:32:58;;;;;;;7.10;6.00;;;17.90;94.70;;;;;;5030796;28;20208;-81
2021/06/03 04:35:25;;;;;;;7.32;5.20;;;17.90;94.60;;;;;;5013975;28;20120;-80
2021/06/03 04:37:52;;;;;;;7.50;5.63;;;17.90;94.50;;;;;;5014740;28;20029;-81
2021/06/03 04:40:20;;;;;;;7.78;5.43;;;17.90;94.50;;;;;;5014389;28;20036;-81
2021/06/03 04:42:48;;;;;;;6.10;4.80;;;17.90;94.40;;;;;;5030330;28;20108;-81
2021/06/03 04:45:15;;;;;;;7.55;4.90;;;17.90;94.30;;;;;;5048548;28;20051;-81
2021/06/03 04:47:45;;;;;;;5.68;4.68;;;17.90;94.30;;;;;;5014037;28;20032;-81
2021/06/03 04:50:16;;;;;;;8.40;4.88;;;17.80;94.30;;;;;;5031076;28;20558;-81
2021/06/03 04:52:42;;;;;;;8.13;6.10;;;17.70;94.30;;;;;;5030404;28;20033;-81
2021/06/03 04:55:12;;;;;;;6.78;4.60;;;17.60;94.20;;;;;;5014518;28;20029;-81
2021/06/03 04:57:38;;;;;;;6.50;4.75;;;17.60;94.30;;;;;;5030049;28;20056;-80
2021/06/03 05:00:11;;;;;;;7.20;4.72;;;17.50;94.20;;;;;;5048005;28;20380;-82
2021/06/03 05:02:37;;;;;;;6.80;4.57;;;17.50;94.30;;;;;;5047920;28;20028;-82
2021/06/03 05:05:04;;;;;;;6.75;4.95;;;17.40;94.30;;;;;;5030219;28;20047;-81
2021/06/03 05:07:30;;;;;;;9.27;4.82;;;17.40;94.40;;;;;;5030299;28;20108;-81
2021/06/03 05:09:55;;;;;;;6.95;4.60;;;17.30;94.40;;;;;;4997492;28;20128;-81
2021/06/03 05:12:21;;;;;;;6.15;4.25;;;17.20;94.50;;;;;;5014163;28;20475;-81
2021/06/03 05:14:47;;;;;;;5.78;4.60;;;17.20;94.50;;;;;;5015515;28;20499;-81
2021/06/03 05:17:13;;;;;;;6.13;4.47;;;17.20;94.50;;;;;;5048903;28;20041;-81
2021/06/03 05:19:38;;;;;;;6.15;4.22;;;17.10;94.60;;;;;;5013932;28;20425;-81
2021/06/03 05:22:05;;;;;;;5.68;4.15;;;17.10;94.60;;;;;;5013106;28;20029;-82
2021/06/03 05:24:31;;;;;;;5.97;4.57;;;17.10;94.60;;;;;;5029918;28;20098;-80
2021/06/03 05:26:58;;;;;;;6.60;4.88;;;17.10;94.70;;;;;;5029751;28;20028;-81
2021/06/03 05:29:25;;;;;;;5.95;4.60;;;17.10;94.70;;;;;;5013489;28;20041;-81
2021/06/03 05:31:52;;;;;;;7.97;4.43;;;17.00;94.70;;;;;;5030138;28;20463;-81
2021/06/03 05:34:19;;;;;;;7.53;5.43;;;17.00;94.70;;;;;;5029830;28;20041;-82
2021/06/03 05:36:45;;;;;;;7.28;4.50;;;17.00;94.60;;;;;;5014270;28;20400;-81
2021/06/03 05:39:11;;;;;;;9.68;4.93;;;17.00;94.40;;;;;;5051531;28;20304;-82
2021/06/03 05:41:37;;;;;;;7.00;5.13;;;17.00;94.30;;;;;;5033675;28;20365;-81
2021/06/03 05:44:08;;;;;;;8.50;5.43;;;17.20;94.40;;;;;;5016949;28;20060;-82
2021/06/03 05:46:36;;;;;;;11.43;5.70;;;17.70;93.30;;;;;;5052539;28;20017;-81
2021/06/03 05:49:03;;;;;;;7.45;5.13;;;17.90;92.30;;;;;;5017836;28;20035;-80
2021/06/03 05:51:29;;;;;;;11.75;5.90;;;17.80;91.80;;;;;;5033766;28;20040;-81
2021/06/03 05:53:55;;;;;;;11.75;6.97;;;17.60;91.90;;;;;;5033402;28;20119;-80
2021/06/03 05:56:22;;;;;;;10.20;6.80;;;17.50;92.10;;;;;;5034734;28;20041;-81
2021/06/03 05:58:48;;;;;;;11.57;5.72;;;17.70;92.70;;;;;;5033510;28;20036;-80
2021/06/03 06:01:14;;;;;;;10.45;5.45;;;18.80;92.20;;;;;;5016778;28;20485;-70
2021/06/03 06:06:25;;;;;;;10.05;5.72;;;21.20;84.60;;;;;;5019835;28;20028;-80
2021/06/03 06:08:53;;;;;;;12.43;5.35;;;22.10;80.00;;;;;;5000860;28;20602;-81
2021/06/03 06:11:20;;;;;;;8.90;5.28;;;22.70;76.60;;;;;;5033628;28;20108;-80
2021/06/03 06:13:46;;;;;;;11.27;5.97;;;23.30;73.40;;;;;;5032757;28;20090;-81
2021/06/03 06:16:13;;;;;;;9.05;4.88;;;23.80;71.50;;;;;;5032763;28;20029;-80
2021/06/03 06:18:40;;;;;;;8.15;5.07;;;24.50;70.00;;;;;;5016874;28;20048;-81
2021/06/03 06:21:07;;;;;;;10.60;6.32;;;25.00;67.60;;;;;;5017004;28;20025;-80
2021/06/03 06:23:35;;;;;;;11.60;5.88;;;24.50;65.20;;;;;;5032456;28;20024;-81
2021/06/03 06:26:03;;;;;;;12.05;4.28;;;24.10;66.10;;;;;;5050692;28;20045;-81
2021/06/03 06:28:29;;;;;;;7.65;4.82;;;24.00;65.60;;;;;;5015914;28;20025;-82
2021/06/03 06:30:54;;;;;;;9.88;4.60;;;23.40;64.60;;;;;;5050567;28;20051;-81
2021/06/03 06:33:21;;;;;;;6.78;4.55;;;22.50;65.10;;;;;;5037188;28;20551;-81
2021/06/03 06:35:49;;;;;;;13.25;5.05;;;21.80;66.10;;;;;;5016144;28;20028;-82
2021/06/03 06:38:19;;;;;;;9.55;4.60;;;21.10;67.10;;;;;;5032137;28;20025;-80
2021/06/03 06:40:46;;;;;;;9.50;4.63;;;20.50;68.10;;;;;;5016306;28;20033;-81
2021/06/03 06:43:12;;;;;;;7.60;5.03;;;20.20;68.90;;;;;;5015779;28;20491;-81
2021/06/03 06:45:39;;;;;;;10.23;5.05;;;20.00;69.60;;;;;;5031954;28;20479;-81
2021/06/03 06:48:10;;;;;;;11.00;5.25;;;19.80;70.10;;;;;;5031674;28;20029;-82
2021/06/03 06:50:37;;;;;;;8.88;4.53;;;19.70;70.40;;;;;;5032404;28;20071;-81
2021/06/03 06:53:04;;;;;;;7.47;4.35;;;19.60;70.80;;;;;;5032515;28;20029;-79
2021/06/03 06:55:30;;;;;;;5.43;3.75;;;19.80;71.60;;;;;;5050257;28;20395;-80
2021/06/03 06:57:58;;;;;;;6.63;3.78;;;21.00;72.20;;;;;;5049972;28;20044;-82
2021/06/03 07:00:26;;;;;;;5.20;3.55;;;22.70;70.20;;;;;;4999826;28;20091;-81
2021/06/03 07:02:52;;;;;;;8.00;3.70;;;24.20;66.80;;;;;;5049785;28;20021;-81
2021/06/03 07:05:19;;;;;;;7.18;3.78;;;25.40;63.60;;;;;;5031706;28;20068;-81
2021/06/03 07:07:44;;;;;;;4.93;3.10;;;26.30;61.80;;;;;;5031946;28;20120;-81
2021/06/03 07:10:11;;;;;;;4.40;3.25;;;27.20;60.10;;;;;;5015407;28;20542;-70
2021/06/03 07:12:38;;;;;;;7.25;3.50;;;27.80;57.80;;;;;;5049628;28;20180;-80
2021/06/03 07:15:10;;;;;;;7.47;3.35;;;28.20;56.50;;;;;;5031934;28;20036;-81
2021/06/03 07:17:36;;;;;;;3.95;2.58;;;28.70;55.60;;;;;;5049691;28;20089;-81
2021/06/03 07:20:10;;;;;;;5.32;2.85;;;29.10;53.60;;;;;;5014662;28;20445;-82
2021/06/03 07:22:47;;;;;;;5.97;2.80;;;29.20;52.30;;;;;;5031207;28;20475;-81
2021/06/03 07:25:15;;;;;;;4.57;3.20;;;29.30;51.70;;;;;;5031651;28;20470;-82
2021/06/03 07:27:42;;;;;;;4.97;2.97;;;29.40;51.30;;;;;;5031057;28;20392;-81
2021/06/03 07:30:11;;;;;;;7.43;3.22;;;29.70;51.70;;;;;;5031199;28;20044;-82
2021/06/03 07:32:38;;;;;;;6.47;3.08;;;30.10;50.60;;;;;;5031202;28;20025;-82
2021/06/03 07:35:09;;;;;;;6.22;3.00;;;30.40;50.00;;;;;;5048922;28;20033;-81
2021/06/03 07:37:38;;;;;;;5.28;3.13;;;30.80;49.70;;;;;;5031712;28;20432;-81
2021/06/03 07:40:06;;;;;;;5.55;2.65;;;31.20;48.90;;;;;;5048494;28;20031;-81
2021/06/03 07:42:31;;;;;;;6.38;2.85;;;31.30;48.00;;;;;;5014667;28;20395;-82
2021/06/03 07:44:57;;;;;;;6.18;3.17;;;31.40;47.80;;;;;;5031341;28;20025;-83
2021/06/03 07:47:23;;;;;;;5.13;2.80;;;31.70;47.90;;;;;;5030875;28;20025;-81
2021/06/03 07:49:49;;;;;;;7.40;3.65;;;32.20;47.70;;;;;;5030815;28;20460;-82
2021/06/03 07:52:14;;;;;;;7.00;3.20;;;32.40;46.50;;;;;;5030521;28;20087;-81
2021/06/03 07:54:40;;;;;;;5.70;3.33;;;32.60;46.80;;;;;;5030712;28;20025;-81
2021/06/03 07:57:07;;;;;;;5.40;3.00;;;32.60;45.70;;;;;;4997516;28;20489;-81
2021/06/03 07:59:32;;;;;;;9.32;2.85;;;32.60;45.60;;;;;;5013439;28;20521;-81
2021/06/03 08:01:58;;;;;;;5.45;2.90;;;32.70;45.20;;;;;;5013922;28;20041;-81
2021/06/03 08:04:24;;;;;;;5.65;2.97;;;32.70;44.80;;;;;;5014071;28;20048;-81
2021/06/03 08:06:50;;;;;;;5.72;3.50;;;32.80;44.50;;;;;;5030120;28;20278;-83
2021/06/03 08:09:16;;;;;;;8.18;2.67;;;32.90;44.70;;;;;;5030115;28;20116;-82
2021/06/03 08:11:44;;;;;;;6.22;2.58;;;33.20;44.20;;;;;;5013279;28;20459;-82
2021/06/03 08:14:10;;;;;;;4.50;2.60;;;33.50;43.40;;;;;;5047521;28;20090;-83
2021/06/03 08:16:36;;;;;;;3.58;2.42;;;33.60;43.10;;;;;;5029673;28;20028;-84
2021/06/03 08:19:02;;;;;;;9.68;2.50;;;33.60;42.70;;;;;;5048212;28;20420;-83
2021/06/03 08:21:28;;;;;;;7.05;2.42;;;33.50;42.40;;;;;;5014279;28;20028;-74
2021/06/03 08:23:55;;;;;;;6.57;2.72;;;33.50;42.50;;;;;;5048681;28;20108;-82
2021/06/03 08:26:21;;;;;;;5.57;2.28;;;33.80;42.60;;;;;;5031817;28;20035;-84
2021/06/03 08:28:47;;;;;;;3.72;2.40;;;34.00;42.30;;;;;;5013574;28;20144;-84
2021/06/03 08:31:13;;;;;;;4.95;2.90;;;34.20;42.00;;;;;;5048820;28;20094;-83
2021/06/03 08:33:39;;;;;;;3.80;2.30;;;34.20;41.90;;;;;;5031462;28;20032;-83
2021/06/03 08:36:05;;;;;;;6.45;2.78;;;34.50;42.20;;;;;;5013476;28;20043;-77
2021/06/03 08:38:31;;;;;;;5.35;2.75;;;34.90;41.80;;;;;;5048707;28;20037;-82
2021/06/03 08:40:58;;;;;;;6.65;2.55;;;35.00;41.30;;;;;;5014540;28;20099;-82
2021/06/03 08:43:26;;;;;;;2.45;1.80;;;35.20;40.80;;;;;;5030566;28;20086;-82
2021/06/03 08:45:54;;;;;;;6.25;2.40;;;35.20;40.60;;;;;;5013650;28;20037;-82
2021/06/03 08:48:20;;;;;;;3.58;2.13;;;35.10;40.60;;;;;;5047596;28;20048;-83
2021/06/03 08:50:49;;;;;;;5.05;2.30;;;35.20;40.60;;;;;;5014401;28;20483;-80
2021/06/03 08:53:15;;;;;;;;;;;35.40;40.10;;;;;;5049243;28;20021;-82
2021/06/03 08:58:27;;;;;;;3.88;2.38;;;35.50;40.70;;;;;;5049645;28;20116;-83
2021/06/03 09:00:57;;;;;;;4.03;2.35;;;35.40;40.20;;;;;;5014263;28;20490;-80
2021/06/03 09:03:25;;;;;;;3.03;2.28;;;35.50;39.80;;;;;;5031268;28;20035;-81
2021/06/03 09:05:50;;;;;;;3.80;2.17;;;35.30;39.30;;;;;;5014587;28;20040;-84
2021/06/03 09:08:31;;;;;;;3.97;1.90;;;35.10;39.20;;;;;;5031130;28;20032;-81
2021/06/03 09:10:59;;;;;;;5.20;2.33;;;35.00;39.10;;;;;;5030635;28;20036;-83
2021/06/03 09:13:31;;;;;;;8.45;2.75;;;34.50;38.70;;;;;;5048767;28;20158;-85
2021/06/03 09:16:01;;;;;;;3.83;2.15;;;34.20;39.30;;;;;;5030458;28;20510;-80
2021/06/03 09:18:37;;;;;;;5.95;2.33;;;33.50;38.80;;;;;;5051009;28;20078;-81
2021/06/03 09:21:22;;;;;;;6.07;2.72;;;32.20;39.00;;;;;;5050274;28;20033;-84
2021/06/03 09:24:13;;;;;;;7.95;2.00;;;30.80;39.80;;;;;;5032418;28;20025;-81
2021/06/03 09:26:45;;;;;;;4.75;2.60;;;29.50;40.70;;;;;;5033672;28;20025;-81
2021/06/03 09:29:12;;;;;;;6.90;3.15;;;28.40;41.70;;;;;;5050943;28;20379;-81
2021/06/03 09:31:41;;;;;;;9.82;4.97;;;27.70;42.70;;;;;;5050570;28;20029;-80
2021/06/03 09:34:18;;;;;;;6.43;2.88;;;28.10;44.30;;;;;;5049583;28;20032;-80
2021/06/03 09:36:54;;;;;;;5.10;1.73;;;29.80;44.10;;;;;;5050572;28;20051;-80
2021/06/03 09:39:25;;;;;;;7.43;2.47;;;31.30;43.20;;;;;;5050690;28;20013;-80
2021/06/03 09:42:08;;;;;;;3.75;1.88;;;32.40;42.20;;;;;;5031065;28;20112;-81
2021/06/03 09:44:59;;;;;;;5.18;1.95;;;33.40;41.70;;;;;;5026288;28;20400;-82
2021/06/03 09:47:33;;;;;;;5.00;1.70;;;33.80;40.60;;;;;;5031890;28;20053;-81
2021/06/03 09:49:59;;;;;;;4.13;2.25;;;33.80;40.00;;;;;;5016667;28;20064;-82
2021/06/03 09:52:33;;;;;;;3.83;1.65;;;33.40;40.20;;;;;;5031755;28;20028;-82
2021/06/03 09:55:01;;;;;;;3.85;1.60;;;32.70;39.60;;;;;;5031793;28;20033;-83
2021/06/03 09:57:35;;;;;;;2.85;1.50;;;31.90;39.80;;;;;;5031419;28;20055;-80
2021/06/03 10:00:04;;;;;;;3.05;1.50;;;30.70;40.00;;;;;;5033144;28;20053;-82
2021/06/03 10:02:34;;;;;;;6.45;2.50;;;29.40;40.80;;;;;;5031614;28;20017;-82
2021/06/03 10:05:00;;;;;;;;;;;28.30;41.60;;;;;;5031501;28;20038;-80
2021/06/03 10:07:34;;;;;;;4.28;1.88;;;27.60;42.70;;;;;;5031489;28;20271;-80
2021/06/03 10:10:08;;;;;;;8.80;4.55;;;27.00;43.00;;;;;;5010953;28;20083;-81
2021/06/03 10:12:54;;;;;;;4.25;2.45;;;26.70;43.60;;;;;;5028694;28;20373;-82
2021/06/03 10:15:20;;;;;;;2.85;1.23;;;27.10;44.60;;;;;;5028758;28;20026;-82
2021/06/03 10:17:57;;;;;;;3.92;1.67;;;28.40;44.30;;;;;;5027392;28;20028;-83
2021/06/03 10:20:46;;;;;;;2.60;1.50;;;29.70;43.60;;;;;;5017686;28;20029;-83
2021/06/03 10:23:15;;;;;;;5.72;1.42;;;31.20;42.50;;;;;;5030587;28;20032;-81
2021/06/03 10:25:43;;;;;;;4.72;1.40;;;32.00;41.80;;;;;;5032074;28;20060;-79
2021/06/03 10:28:19;;;;;;;5.10;1.48;;;32.60;41.30;;;;;;5032113;28;20476;-80
2021/06/03 10:30:49;;;;;;;2.70;1.52;;;33.10;41.20;;;;;;5015032;28;20041;-82
2021/06/03 10:33:20;;;;;;;5.30;1.20;;;33.50;41.10;;;;;;5032124;28;20100;-81
2021/06/03 10:35:49;;;;;;;2.45;1.10;;;33.70;40.30;;;;;;5025784;28;20026;-82
2021/06/03 10:38:15;;;;;;;5.90;1.85;;;33.70;39.60;;;;;;5031397;28;20083;-79
2021/06/03 10:40:53;;;;;;;9.55;2.10;;;33.80;39.80;;;;;;5031671;28;20021;-82
2021/06/03 10:43:19;;;;;;;3.50;1.30;;;34.10;40.00;;;;;;5033118;28;20095;-81
2021/06/03 10:45:45;;;;;;;1.92;1.25;;;34.30;39.50;;;;;;5033038;28;20043;-82
2021/06/03 10:48:11;;;;;;;2.33;1.38;;;34.30;39.70;;;;;;5015746;28;20032;-80
2021/06/03 10:50:49;;;;;;;2.28;0.98;;;34.40;38.90;;;;;;5031863;28;20030;-80
2021/06/03 10:53:24;;;;;;;2.67;1.20;;;34.20;38.60;;;;;;5032950;28;20018;-80
2021/06/03 10:55:51;;;;;;;5.20;1.60;;;34.20;38.40;;;;;;5013886;28;20022;-80
2021/06/03 10:58:29;;;;;;;3.42;1.67;;;34.00;38.50;;;;;;5034512;28;20025;-79
2021/06/03 11:01:00;;;;;;;4.68;1.55;;;33.80;38.70;;;;;;5052510;28;20025;-79
2021/06/03 11:03:41;;;;;;;4.13;1.38;;;34.00;38.80;;;;;;5052415;28;20029;-81
2021/06/03 11:06:08;;;;;;;4.25;1.73;;;33.70;38.40;;;;;;5052305;28;20082;-81
2021/06/03 11:08:36;;;;;;;4.30;1.02;;;32.80;38.50;;;;;;5034087;28;20025;-80
2021/06/03 11:11:13;;;;;;;3.80;1.40;;;32.00;39.40;;;;;;5051411;28;20018;-79
2021/06/03 11:14:08;;;;;;;4.82;1.27;;;31.80;40.30;;;;;;5051757;28;20090;-80
2021/06/03 11:16:38;;;;;;;5.43;1.67;;;32.50;40.40;;;;;;5053442;28;20035;-78
2021/06/03 11:19:06;;;;;;;3.03;1.52;;;32.50;40.30;;;;;;5033898;28;20017;-80
2021/06/03 11:21:38;;;;;;;4.68;1.45;;;33.00;40.60;;;;;;5017525;28;20033;-81
2021/06/03 11:24:15;;;;;;;5.25;2.53;;;33.40;39.90;;;;;;5033847;28;20486;-80
2021/06/03 11:26:44;;;;;;;2.22;1.08;;;33.50;39.20;;;;;;5033026;28;20037;-80
2021/06/03 11:29:17;;;;;;;3.53;1.20;;;33.50;39.40;;;;;;5051141;28;20083;-78
2021/06/03 11:31:52;;;;;;;2.78;1.10;;;33.50;39.20;;;;;;5050758;28;20025;-79
2021/06/03 11:34:23;;;;;;;5.10;1.00;;;33.60;39.20;;;;;;5031013;28;20657;-78
2021/06/03 11:36:59;;;;;;;4.72;0.93;;;33.90;38.80;;;;;;5051771;28;20025;-79
2021/06/03 11:39:31;;;;;;;2.72;0.90;;;33.70;38.50;;;;;;5050759;28;20055;-79
2021/06/03 11:42:21;;;;;;;3.45;1.23;;;33.50;38.50;;;;;;5032571;28;20108;-80
2021/06/03 11:45:05;;;;;;;1.65;0.80;;;33.00;38.30;;;;;;5042201;28;20028;-81
2021/06/03 11:47:52;;;;;;;1.90;0.70;;;32.80;38.50;;;;;;5051185;28;20029;-80
2021/06/03 11:50:18;;;;;;;2.38;0.88;;;32.70;38.20;;;;;;5051207;28;20102;-79
2021/06/03 11:52:56;;;;;;;2.25;0.90;;;32.70;38.50;;;;;;5033359;28;20079;-79
2021/06/03 11:55:38;;;;;;;7.80;1.45;;;32.40;38.70;;;;;;5052419;28;20028;-81
2021/06/03 11:58:31;;;;;;;3.55;1.27;;;32.30;38.80;;;;;;5033013;28;20052;-80
2021/06/03 12:01:27;;;;;;;7.97;1.30;;;32.40;39.20;;;;;;5053227;28;20025;-79
2021/06/03 12:04:16;;;;;;;6.43;1.50;;;32.50;38.70;;;;;;5032615;28;20063;-79
2021/06/03 12:06:44;;;;;;;2.40;0.67;;;32.50;38.50;;;;;;5050856;28;20100;-79
2021/06/03 12:09:24;;;;;;;2.57;1.00;;;32.20;38.70;;;;;;5051227;28;20135;-79
2021/06/03 12:11:52;;;;;;;;;;;31.90;39.30;;;;;;5031448;28;20025;-78
2021/06/03 12:14:21;;;;;;;2.42;0.63;;;32.00;39.40;;;;;;5031247;28;19905;-78
2021/06/03 12:16:50;;;;;;;4.18;0.65;;;31.90;39.40;;;;;;5031072;28;20018;-79
2021/06/03 12:19:27;;;;;;;3.17;0.90;;;31.70;39.30;;;;;;5030779;28;20025;-80
2021/06/03 12:22:00;;;;;;;3.20;0.85;;;31.40;39.60;;;;;;5046975;28;20264;-80
2021/06/03 12:24:46;;;;;;;0.77;0.50;;;31.30;39.90;;;;;;5035068;28;20029;-80
2021/06/03 12:27:19;;;;;;;2.72;1.10;;;31.10;39.50;;;;;;5035039;28;20387;-79
2021/06/03 12:29:45;;;;;;;2.05;1.00;;;30.80;39.70;;;;;;5033481;28;20035;-81
2021/06/03 12:32:12;;;;;;;4.15;0.90;;;30.80;39.90;;;;;;5033144;28;20032;-81
2021/06/03 12:34:38;;;;;;;1.50;0.70;;;30.70;39.80;;;;;;5032456;28;20029;-76
2021/06/03 12:37:29;;;;;;;2.88;0.50;;;30.80;40.10;;;;;;5049979;28;20070;-79
2021/06/03 12:39:56;;;;;;;3.15;1.42;;;30.80;40.30;;;;;;5032537;28;20025;-79
2021/06/03 12:42:25;;;;;;;3.38;1.15;;;30.70;40.20;;;;;;5033470;28;20479;-79
2021/06/03 12:45:00;;;;;;;3.27;1.30;;;30.20;40.40;;;;;;5050511;28;20028;-81
2021/06/03 12:47:30;;;;;;;7.25;0.95;;;30.00;40.60;;;;;;5049028;28;20439;-81
2021/06/03 12:50:11;;;;;;;1.17;0.55;;;29.80;40.70;;;;;;5049887;28;20454;-78
2021/06/03 12:52:37;;;;;;;3.17;1.10;;;29.20;40.80;;;;;;5049777;28;20336;-79
2021/06/03 12:55:04;;;;;;;1.50;0.70;;;28.70;41.50;;;;;;5015308;28;20406;-78